Accueil
METAR-TAF:

METAR-TAF

Aéroports :

Pian Rosa, Italie

latitude: 45-56N, longitude: 007-42E, altitude: 3480 m

Observation

Le bulletin a été fait il y a 1 heure et 21 minutes, à 10:55 UTC
Vent 13 kt de est
Température -7°C
Humidité 86%
Pression 1012 hPa
Visibilité: 0300 m
brouillard givrant

METAR: LIMH 191055Z 10013KT 0000 0300 FZFG VV/// M07/M09 Q1012 RMK MON INVIS VAL INVIS VIS MIN 0300

Heure: 13:16 (12:16 UTC)


TAF: absent

Observations et prévisions météorologiques de plus de 4000 aéroports (messages METAR et TAF).

Les stations disponibles sont représentées par des disques jaunes et rouges sur la carte.

Passer la souris dessus pour voir le nom de la station.

Cliquer dessus pour voir les observations et prévisions météorologiques.

Pour changer de carte: cliquez sur les boutons verts avec une croix noire pour zoomer, sur le bouton vert avec un tiret pour effectuer un zoom arrière, ou sur les flèches vertes pour les cartes adjacentes.


METAR-TAF: